Time;durP1;ratioP1;P1;durP2;ratioP2;P2;SDS_P1;SDS_P2;PMS_P1;PMS_P2;Temp;Humidity;BMP_temperature;BMP_pressure;BME280_temperature;BME280_humidity;BME280_pressure;Samples;Min_cycle;Max_cycle;Signal;HPM_P1;HPM_P2
2023/03/13 00:00:19;;;;;;;5.53;1.90;;;10.00;99.90;;;;;;6019202;23;20423;-71
2023/03/13 00:02:44;;;;;;;11.27;2.90;;;10.00;99.90;;;;;;6016485;23;20574;-72
2023/03/13 00:05:11;;;;;;;10.23;3.33;;;9.90;99.90;;;;;;6042354;23;20371;-71
2023/03/13 00:07:37;;;;;;;7.77;2.57;;;10.00;99.90;;;;;;6041811;23;20138;-71
2023/03/13 00:10:04;;;;;;;17.57;4.53;;;9.90;99.90;;;;;;6042233;23;20419;-72
2023/03/13 00:12:29;;;;;;;11.87;3.20;;;9.90;99.90;;;;;;6042309;23;20461;-71
2023/03/13 00:14:55;;;;;;;12.63;4.20;;;9.90;99.90;;;;;;6041512;23;20786;-72
2023/03/13 00:17:21;;;;;;;21.10;4.70;;;10.00;99.90;;;;;;6041763;23;20131;-71
2023/03/13 00:19:46;;;;;;;7.00;3.13;;;10.00;99.90;;;;;;6040826;23;20281;-71
2023/03/13 00:22:12;;;;;;;8.70;2.70;;;10.00;99.90;;;;;;6042163;23;20201;-71
2023/03/13 00:24:37;;;;;;;9.13;3.10;;;10.00;99.90;;;;;;6041762;23;20401;-72
2023/03/13 00:27:04;;;;;;;10.93;3.40;;;10.10;99.90;;;;;;6042173;23;20138;-72
2023/03/13 00:29:32;;;;;;;8.90;2.97;;;10.10;99.90;;;;;;6040984;23;20189;-71
2023/03/13 00:31:59;;;;;;;14.67;3.40;;;10.10;99.90;;;;;;6041459;23;20425;-71
2023/03/13 00:34:26;;;;;;;10.80;3.00;;;10.20;99.90;;;;;;6042142;23;20390;-73
2023/03/13 00:36:53;;;;;;;7.53;2.50;;;10.20;99.90;;;;;;6041610;23;20369;-71
2023/03/13 00:39:19;;;;;;;9.70;3.33;;;10.20;99.90;;;;;;6041305;23;20410;-71
2023/03/13 00:41:45;;;;;;;13.73;3.33;;;10.30;99.90;;;;;;6041874;23;20489;-70
2023/03/13 00:44:11;;;;;;;13.23;3.70;;;10.40;99.90;;;;;;6041703;23;20426;-70
2023/03/13 00:46:37;;;;;;;12.97;3.37;;;10.40;99.90;;;;;;6041923;23;20213;-71
2023/03/13 00:49:03;;;;;;;10.07;3.80;;;10.40;99.90;;;;;;6043699;23;20139;-71
2023/03/13 00:51:28;;;;;;;14.30;3.30;;;10.30;99.90;;;;;;6045972;23;20142;-71
2023/03/13 00:53:55;;;;;;;14.00;3.27;;;10.40;99.90;;;;;;6043224;23;20799;-72
2023/03/13 00:56:22;;;;;;;10.10;3.20;;;10.40;99.90;;;;;;6041843;23;20213;-71
2023/03/13 00:58:49;;;;;;;11.20;3.13;;;10.30;99.90;;;;;;6041613;23;20359;-70
2023/03/13 01:01:26;;;;;;;9.70;3.90;;;10.40;99.90;;;;;;6041499;23;20455;-71
2023/03/13 01:03:56;;;;;;;11.50;3.73;;;10.40;99.90;;;;;;6016806;23;20422;-71
2023/03/13 01:06:25;;;;;;;13.80;3.80;;;10.40;99.90;;;;;;6016639;23;20371;-71
2023/03/13 01:08:51;;;;;;;10.00;2.57;;;10.30;99.90;;;;;;6042223;23;20370;-72
2023/03/13 01:11:25;;;;;;;16.23;3.53;;;10.30;99.90;;;;;;6040131;23;20410;-70
2023/03/13 01:13:54;;;;;;;15.93;6.27;;;10.40;99.90;;;;;;6039867;23;20692;-72
2023/03/13 01:16:20;;;;;;;9.23;3.27;;;10.40;99.90;;;;;;6016748;23;20637;-72
2023/03/13 01:18:49;;;;;;;11.57;3.83;;;10.50;99.90;;;;;;6041923;23;20399;-72
2023/03/13 01:21:15;;;;;;;10.80;2.80;;;10.60;99.90;;;;;;6041377;23;20738;-71
2023/03/13 01:23:41;;;;;;;15.30;4.37;;;10.70;99.90;;;;;;6041114;23;20366;-72
2023/03/13 01:26:08;;;;;;;11.50;2.83;;;10.70;99.90;;;;;;6040415;23;20397;-71
2023/03/13 01:28:35;;;;;;;14.40;2.90;;;10.80;99.90;;;;;;6041973;23;20359;-72
2023/03/13 01:31:08;;;;;;;12.17;3.30;;;10.80;99.90;;;;;;6041260;23;20170;-72
2023/03/13 01:33:34;;;;;;;10.93;3.53;;;10.90;99.90;;;;;;6040013;23;20379;-71
2023/03/13 01:36:01;;;;;;;13.57;3.00;;;10.90;99.90;;;;;;6041102;23;20369;-72
2023/03/13 01:38:27;;;;;;;7.60;2.70;;;10.90;99.90;;;;;;6041000;23;20146;-72
2023/03/13 01:40:52;;;;;;;9.87;2.80;;;10.90;99.90;;;;;;6041434;23;20489;-71
2023/03/13 01:43:24;;;;;;;14.97;2.70;;;11.00;99.90;;;;;;6016317;23;20146;-71
2023/03/13 01:46:04;;;;;;;13.77;2.80;;;11.00;99.90;;;;;;6041609;23;20170;-71
2023/03/13 01:49:08;;;;;;;10.50;3.50;;;11.00;99.90;;;;;;5994309;23;20387;-71
2023/03/13 01:51:50;;;;;;;8.10;2.37;;;11.00;99.90;;;;;;6017575;23;20401;-71
2023/03/13 01:54:23;;;;;;;8.37;2.53;;;11.10;99.90;;;;;;6042404;23;20792;-71
2023/03/13 01:57:13;;;;;;;7.33;2.60;;;11.10;99.90;;;;;;6018782;23;20411;-71
2023/03/13 01:59:45;;;;;;;7.90;2.23;;;11.10;99.90;;;;;;6017536;23;20413;-72
2023/03/13 02:02:11;;;;;;;5.83;1.80;;;11.20;99.90;;;;;;6018767;23;20439;-72
2023/03/13 02:04:40;;;;;;;6.53;1.97;;;11.10;99.90;;;;;;6043205;23;20465;-70
2023/03/13 02:07:17;;;;;;;5.30;2.00;;;11.10;99.90;;;;;;6044131;23;20363;-72
2023/03/13 02:09:48;;;;;;;8.90;2.20;;;11.20;99.90;;;;;;6042450;23;20408;-72
2023/03/13 02:12:23;;;;;;;7.57;1.83;;;11.20;99.90;;;;;;6042164;23;20433;-72
2023/03/13 02:14:50;;;;;;;9.83;2.00;;;11.20;99.90;;;;;;6041621;23;20386;-71
2023/03/13 02:17:16;;;;;;;6.27;2.27;;;11.30;99.90;;;;;;6018899;23;20373;-72
2023/03/13 02:19:48;;;;;;;6.47;2.07;;;11.30;99.90;;;;;;6041010;23;20724;-72
2023/03/13 02:22:18;;;;;;;4.00;1.53;;;11.30;99.90;;;;;;6042678;23;20378;-72
2023/03/13 02:24:51;;;;;;;3.70;1.53;;;11.30;99.90;;;;;;6018896;23;20701;-70
2023/03/13 02:27:17;;;;;;;2.80;1.57;;;11.20;99.90;;;;;;6018914;23;20804;-71
2023/03/13 02:29:44;;;;;;;5.20;1.53;;;11.20;99.90;;;;;;6040979;23;20406;-71
2023/03/13 02:32:11;;;;;;;6.37;1.60;;;11.10;99.90;;;;;;6018246;23;20378;-71
2023/03/13 02:34:39;;;;;;;5.03;1.47;;;11.00;99.90;;;;;;6041840;23;20374;-72
2023/03/13 02:37:09;;;;;;;5.07;2.10;;;10.90;99.90;;;;;;6018588;23;20378;-71
2023/03/13 02:39:40;;;;;;;4.47;1.13;;;10.90;99.90;;;;;;6017327;23;20410;-72
2023/03/13 02:42:06;;;;;;;2.80;1.07;;;10.80;99.90;;;;;;6043683;23;20390;-71
2023/03/13 02:44:39;;;;;;;5.60;2.43;;;10.70;99.90;;;;;;6041776;23;20393;-70
2023/03/13 02:47:08;;;;;;;3.83;1.20;;;10.60;99.90;;;;;;6018420;23;20393;-72
2023/03/13 02:49:35;;;;;;;2.73;1.20;;;10.50;99.90;;;;;;6017753;23;20656;-72
2023/03/13 02:52:22;;;;;;;3.03;1.10;;;10.30;99.90;;;;;;6042667;23;20647;-71
2023/03/13 02:54:51;;;;;;;5.10;1.80;;;10.20;99.90;;;;;;6018149;23;20479;-71
2023/03/13 02:57:19;;;;;;;5.20;0.87;;;10.20;99.90;;;;;;6018438;23;20391;-72
2023/03/13 02:59:44;;;;;;;2.60;1.20;;;10.10;99.90;;;;;;6041657;23;20494;-71
2023/03/13 03:02:10;;;;;;;5.73;1.47;;;10.10;99.90;;;;;;6041686;23;20408;-70
2023/03/13 03:04:36;;;;;;;5.70;1.23;;;10.00;99.90;;;;;;6036907;23;20208;-70
2023/03/13 03:07:02;;;;;;;3.17;1.10;;;10.00;99.90;;;;;;6013618;23;20470;-73
2023/03/13 03:09:28;;;;;;;5.13;1.30;;;10.00;99.90;;;;;;6012480;23;20178;-70
2023/03/13 03:11:58;;;;;;;2.27;0.90;;;10.00;99.90;;;;;;6013489;23;20390;-72
2023/03/13 03:14:26;;;;;;;3.60;1.10;;;10.00;99.90;;;;;;6036228;23;20815;-71
2023/03/13 03:16:52;;;;;;;1.37;0.60;;;10.00;99.90;;;;;;6036368;23;20388;-72
2023/03/13 03:19:17;;;;;;;3.57;1.57;;;9.90;99.90;;;;;;6014079;23;20190;-71
2023/03/13 03:21:43;;;;;;;2.77;0.90;;;10.10;99.90;;;;;;6013152;23;20205;-72
2023/03/13 03:24:09;;;;;;;2.80;1.13;;;10.00;99.90;;;;;;6014383;23;20139;-71
2023/03/13 03:26:35;;;;;;;1.30;0.87;;;10.00;99.90;;;;;;6012899;23;20444;-71
2023/03/13 03:29:04;;;;;;;3.30;1.10;;;10.00;99.90;;;;;;6012443;23;20412;-70
2023/03/13 03:31:30;;;;;;;5.63;0.90;;;10.00;99.90;;;;;;6036259;23;20384;-70
2023/03/13 03:33:56;;;;;;;2.43;1.30;;;10.10;99.90;;;;;;6036025;23;20564;-72
2023/03/13 03:36:23;;;;;;;3.73;0.90;;;10.10;99.90;;;;;;6036529;23;20428;-71
2023/03/13 03:38:49;;;;;;;1.70;0.80;;;10.20;99.90;;;;;;6013050;23;20376;-71
2023/03/13 03:41:18;;;;;;;2.30;0.97;;;10.20;99.90;;;;;;6014066;23;20511;-71
2023/03/13 03:43:46;;;;;;;0.83;0.60;;;10.30;99.90;;;;;;6012231;23;20384;-71
2023/03/13 03:46:14;;;;;;;1.60;0.60;;;10.30;99.90;;;;;;6012871;23;20422;-72
2023/03/13 03:48:40;;;;;;;2.17;0.70;;;10.30;99.90;;;;;;6013129;23;20384;-71
2023/03/13 03:51:08;;;;;;;1.67;0.73;;;10.40;99.90;;;;;;6036167;23;20407;-72
2023/03/13 03:53:38;;;;;;;2.50;0.80;;;10.50;99.90;;;;;;6012153;23;20454;-71
2023/03/13 03:56:04;;;;;;;1.70;0.70;;;10.50;99.90;;;;;;6036182;23;20440;-71
2023/03/13 03:58:30;;;;;;;2.13;0.60;;;10.50;99.90;;;;;;6013167;23;20230;-71
2023/03/13 04:01:06;;;;;;;1.23;0.70;;;10.60;99.90;;;;;;6035870;23;20437;-71
2023/03/13 04:03:32;;;;;;;0.80;0.60;;;10.80;99.90;;;;;;6036477;23;20795;-72
2023/03/13 04:05:58;;;;;;;1.43;0.87;;;10.90;99.90;;;;;;6036173;23;20151;-72
2023/03/13 04:08:24;;;;;;;1.43;0.70;;;10.90;99.90;;;;;;6012731;23;20447;-70
2023/03/13 04:10:50;;;;;;;1.67;0.90;;;11.00;99.90;;;;;;6035756;23;20449;-71
2023/03/13 04:13:19;;;;;;;2.70;0.80;;;11.10;99.90;;;;;;6035394;23;20383;-71
2023/03/13 04:15:45;;;;;;;2.37;0.80;;;11.10;99.90;;;;;;6012845;23;20411;-71
2023/03/13 04:18:11;;;;;;;1.17;0.60;;;11.20;99.90;;;;;;6014272;23;20390;-71
2023/03/13 04:20:37;;;;;;;1.10;0.80;;;11.20;99.90;;;;;;6036593;23;20755;-71
2023/03/13 04:23:03;;;;;;;0.83;0.63;;;11.30;99.90;;;;;;6013292;23;20372;-72
2023/03/13 04:25:29;;;;;;;1.17;0.70;;;11.30;99.90;;;;;;6035925;23;20367;-72
2023/03/13 04:27:58;;;;;;;1.73;0.80;;;11.30;99.90;;;;;;6012479;23;20380;-70
2023/03/13 04:30:28;;;;;;;1.03;0.70;;;11.40;99.90;;;;;;6035691;23;20411;-71
2023/03/13 04:33:06;;;;;;;1.47;0.77;;;11.30;99.90;;;;;;6036160;23;20401;-72
2023/03/13 04:35:43;;;;;;;1.37;0.80;;;11.30;99.90;;;;;;5990522;23;20387;-72
2023/03/13 04:38:36;;;;;;;1.93;0.80;;;11.30;99.90;;;;;;6014251;23;20366;-70
2023/03/13 04:41:20;;;;;;;1.00;0.63;;;11.40;99.90;;;;;;6011382;23;20427;-71
2023/03/13 04:44:19;;;;;;;0.83;0.67;;;11.30;99.90;;;;;;6008097;23;20451;-71
2023/03/13 04:46:59;;;;;;;1.77;0.70;;;11.30;99.90;;;;;;6012555;23;20460;-70
2023/03/13 04:49:42;;;;;;;1.20;0.77;;;11.30;99.90;;;;;;6035129;23;20532;-71
2023/03/13 04:52:26;;;;;;;1.53;0.80;;;11.30;99.90;;;;;;6013685;23;20438;-71
2023/03/13 04:55:12;;;;;;;0.97;0.77;;;11.30;99.90;;;;;;6013449;23;20406;-71
2023/03/13 04:57:52;;;;;;;1.17;0.77;;;11.40;99.90;;;;;;6035607;23;20376;-72
2023/03/13 05:00:35;;;;;;;1.13;0.67;;;11.40;99.90;;;;;;6035357;23;20434;-71
2023/03/13 05:03:10;;;;;;;1.10;0.60;;;11.40;99.90;;;;;;6040339;23;20484;-72
2023/03/13 05:06:05;;;;;;;1.40;1.10;;;11.40;99.90;;;;;;5990712;23;20838;-71
2023/03/13 05:08:49;;;;;;;1.27;0.90;;;11.40;99.90;;;;;;6016967;23;20363;-72
2023/03/13 05:11:47;;;;;;;1.20;0.80;;;11.50;99.90;;;;;;6008321;23;20858;-72
2023/03/13 05:14:31;;;;;;;0.90;0.60;;;11.50;99.90;;;;;;6016272;23;20359;-71
2023/03/13 05:17:16;;;;;;;1.33;0.60;;;11.50;99.90;;;;;;6019068;23;20390;-72
2023/03/13 05:20:20;;;;;;;1.10;0.60;;;11.60;99.90;;;;;;6014701;23;20437;-70
2023/03/13 05:23:06;;;;;;;1.67;0.60;;;11.50;99.90;;;;;;6014647;23;20491;-72
2023/03/13 05:25:45;;;;;;;1.30;1.10;;;11.60;99.90;;;;;;5992231;23;20404;-74
2023/03/13 05:28:37;;;;;;;1.20;0.90;;;11.60;99.90;;;;;;6014735;23;20825;-72
2023/03/13 05:31:13;;;;;;;1.17;0.80;;;11.60;99.90;;;;;;6015580;23;20647;-71
2023/03/13 05:33:58;;;;;;;2.17;1.30;;;11.60;99.90;;;;;;5996919;23;20436;-72
2023/03/13 05:36:23;;;;;;;1.67;1.30;;;11.70;99.90;;;;;;6028234;23;20364;-72
2023/03/13 05:39:07;;;;;;;0.90;0.60;;;11.70;99.90;;;;;;6016649;23;20159;-72
2023/03/13 05:41:53;;;;;;;1.23;0.80;;;11.80;99.90;;;;;;6019147;23;20507;-71
2023/03/13 05:44:38;;;;;;;1.93;1.10;;;11.80;99.90;;;;;;6016251;23;20397;-73
2023/03/13 05:47:26;;;;;;;2.67;1.10;;;11.70;99.90;;;;;;6016572;23;20372;-73
2023/03/13 05:50:07;;;;;;;1.10;0.80;;;11.70;99.90;;;;;;6016336;23;20498;-72
2023/03/13 05:52:53;;;;;;;1.10;0.97;;;11.80;99.90;;;;;;6020363;23;20439;-72
2023/03/13 05:55:32;;;;;;;2.10;0.80;;;11.80;99.90;;;;;;6019983;23;20391;-71
2023/03/13 05:58:18;;;;;;;1.73;0.70;;;11.90;99.90;;;;;;6020568;23;20379;-72
2023/03/13 06:01:10;;;;;;;2.70;0.83;;;11.80;99.90;;;;;;6020306;23;20506;-72
2023/03/13 06:04:01;;;;;;;1.20;0.70;;;11.80;99.90;;;;;;6042595;23;20428;-72
2023/03/13 06:06:27;;;;;;;1.30;0.80;;;11.70;99.90;;;;;;6019115;23;20383;-71
2023/03/13 06:08:55;;;;;;;1.33;0.80;;;11.70;99.90;;;;;;6018514;23;20468;-71
2023/03/13 06:11:22;;;;;;;1.00;0.80;;;11.70;99.90;;;;;;6044151;23;20375;-72
2023/03/13 06:13:51;;;;;;;1.57;1.47;;;11.70;99.90;;;;;;6020652;23;20378;-73
2023/03/13 06:16:24;;;;;;;1.57;0.80;;;11.80;99.90;;;;;;6023158;23;20158;-72
2023/03/13 06:18:50;;;;;;;1.20;0.77;;;11.90;99.90;;;;;;6018968;23;20385;-73
2023/03/13 06:21:15;;;;;;;1.23;0.83;;;11.90;99.90;;;;;;6044251;23;20430;-74
2023/03/13 06:23:41;;;;;;;0.80;0.50;;;12.00;99.90;;;;;;6042696;23;20147;-74
2023/03/13 06:26:07;;;;;;;1.30;0.77;;;11.90;99.90;;;;;;6022238;23;20178;-75
2023/03/13 06:28:33;;;;;;;0.80;0.60;;;12.00;99.90;;;;;;6027085;23;20139;-74
2023/03/13 06:31:03;;;;;;;1.20;0.80;;;12.00;99.90;;;;;;6000152;23;20179;-76
2023/03/13 06:33:45;;;;;;;1.50;0.80;;;12.00;99.90;;;;;;6024061;23;20223;-76
2023/03/13 06:36:11;;;;;;;1.60;0.90;;;12.10;99.90;;;;;;6023743;23;20402;-75
2023/03/13 06:38:37;;;;;;;2.50;1.53;;;12.10;99.90;;;;;;6029275;23;20384;-75
2023/03/13 06:41:03;;;;;;;4.80;1.93;;;12.20;99.90;;;;;;6028234;23;20183;-73
2023/03/13 06:43:28;;;;;;;5.03;1.40;;;12.30;99.90;;;;;;6048647;23;20148;-75
2023/03/13 06:45:54;;;;;;;1.60;1.10;;;12.40;99.90;;;;;;6028102;23;20139;-73
2023/03/13 06:48:21;;;;;;;3.33;1.70;;;12.40;99.90;;;;;;6026438;23;20158;-75
2023/03/13 06:50:48;;;;;;;3.27;1.53;;;12.50;99.90;;;;;;6027190;23;20250;-73
2023/03/13 06:53:16;;;;;;;3.40;1.30;;;12.60;99.90;;;;;;6027180;23;20379;-75
2023/03/13 06:55:42;;;;;;;2.00;1.13;;;12.70;99.90;;;;;;6030759;23;20638;-76
2023/03/13 06:58:08;;;;;;;2.03;1.47;;;12.70;99.90;;;;;;6051420;23;20403;-74
2023/03/13 07:00:38;;;;;;;1.60;1.50;;;12.70;99.90;;;;;;6029619;23;20433;-74
2023/03/13 07:03:04;;;;;;;2.03;1.30;;;12.80;99.90;;;;;;6035100;23;20412;-75
2023/03/13 07:05:30;;;;;;;3.00;1.27;;;12.80;99.90;;;;;;6055856;23;20409;-74
2023/03/13 07:07:55;;;;;;;2.17;1.50;;;12.90;99.90;;;;;;6053908;23;20134;-74
2023/03/13 07:10:21;;;;;;;1.60;1.40;;;12.90;99.90;;;;;;6053967;23;20244;-75
2023/03/13 07:12:46;;;;;;;3.43;1.57;;;12.90;99.90;;;;;;6051757;23;20154;-73
2023/03/13 07:15:12;;;;;;;3.03;1.50;;;12.90;99.90;;;;;;6053088;23;20396;-75
2023/03/13 07:17:38;;;;;;;1.53;1.20;;;12.90;99.90;;;;;;6055227;23;20150;-75
2023/03/13 07:20:05;;;;;;;8.90;1.83;;;13.00;99.90;;;;;;6009354;23;20202;-76
2023/03/13 07:22:31;;;;;;;3.00;1.57;;;13.00;99.90;;;;;;6056003;23;20204;-74
2023/03/13 07:24:57;;;;;;;6.10;2.43;;;13.10;99.90;;;;;;6029904;23;20402;-74
2023/03/13 07:27:22;;;;;;;3.47;1.57;;;13.10;99.90;;;;;;6028552;23;20508;-73
2023/03/13 07:29:48;;;;;;;3.10;2.27;;;13.20;99.90;;;;;;6028519;23;20170;-74
2023/03/13 07:32:14;;;;;;;2.43;2.20;;;13.20;99.90;;;;;;6027945;23;20226;-75
2023/03/13 07:34:43;;;;;;;3.03;1.63;;;13.20;99.90;;;;;;6056038;23;20375;-73
2023/03/13 07:37:13;;;;;;;4.43;2.67;;;13.20;99.90;;;;;;6054744;23;20391;-73
2023/03/13 07:39:39;;;;;;;3.53;2.87;;;13.30;99.90;;;;;;6034097;23;20404;-73
2023/03/13 07:42:10;;;;;;;5.40;2.07;;;13.40;99.90;;;;;;6056829;23;20405;-76
2023/03/13 07:44:35;;;;;;;3.50;1.97;;;13.40;99.90;;;;;;6009727;23;20167;-74
2023/03/13 07:47:01;;;;;;;3.60;1.60;;;13.50;99.90;;;;;;6055649;23;20371;-73
2023/03/13 07:49:27;;;;;;;2.93;1.83;;;13.70;99.90;;;;;;6053792;23;20191;-74
2023/03/13 07:51:52;;;;;;;3.63;2.40;;;13.80;99.90;;;;;;6054573;23;20168;-75
2023/03/13 07:54:18;;;;;;;4.40;2.27;;;14.00;99.90;;;;;;6057804;23;20249;-76
2023/03/13 07:56:43;;;;;;;4.10;2.03;;;14.10;99.90;;;;;;6056008;23;20150;-74
2023/03/13 07:59:09;;;;;;;4.27;1.97;;;14.20;99.90;;;;;;6005816;23;20186;-75
2023/03/13 08:01:35;;;;;;;4.03;2.20;;;14.20;99.90;;;;;;6056098;23;20176;-75
2023/03/13 08:04:01;;;;;;;6.53;2.70;;;14.20;99.90;;;;;;6025736;23;20189;-75
2023/03/13 08:06:30;;;;;;;4.00;2.67;;;14.20;99.90;;;;;;6025377;23;20142;-75
2023/03/13 08:08:57;;;;;;;10.03;3.03;;;14.30;99.90;;;;;;6027718;23;20637;-75
2023/03/13 08:11:24;;;;;;;6.50;3.03;;;14.20;99.90;;;;;;6029821;23;20434;-74
2023/03/13 08:13:50;;;;;;;5.40;2.63;;;14.20;99.90;;;;;;6030777;23;20407;-77
2023/03/13 08:16:21;;;;;;;4.97;2.93;;;14.20;99.90;;;;;;6052387;23;20372;-75
2023/03/13 08:18:49;;;;;;;7.40;3.10;;;14.10;99.90;;;;;;6028692;23;20383;-73
2023/03/13 08:21:21;;;;;;;5.37;3.17;;;14.00;99.90;;;;;;6028485;23;20429;-75
2023/03/13 08:23:47;;;;;;;6.03;2.97;;;14.00;99.90;;;;;;6026122;23;20383;-74
2023/03/13 08:26:20;;;;;;;4.50;2.43;;;14.00;99.90;;;;;;6029363;23;20394;-76
2023/03/13 08:28:50;;;;;;;4.17;2.60;;;14.00;99.90;;;;;;6027593;23;20371;-75
2023/03/13 08:31:22;;;;;;;5.57;2.47;;;14.10;99.90;;;;;;6029444;23;20407;-76
2023/03/13 08:33:49;;;;;;;3.70;2.17;;;14.20;99.50;;;;;;6029465;23;20370;-74
2023/03/13 08:36:30;;;;;;;3.70;2.17;;;14.10;99.80;;;;;;6053218;23;20390;-76
2023/03/13 08:38:58;;;;;;;3.47;2.30;;;14.10;99.90;;;;;;6000427;23;20405;-76
2023/03/13 08:41:27;;;;;;;6.37;2.97;;;14.20;99.90;;;;;;6027605;23;20414;-75
2023/03/13 08:43:55;;;;;;;3.17;2.20;;;14.10;99.90;;;;;;6028913;23;20387;-76
2023/03/13 08:46:22;;;;;;;5.00;2.80;;;14.00;99.90;;;;;;6026218;23;20381;-75
2023/03/13 08:48:52;;;;;;;4.63;2.00;;;13.90;99.90;;;;;;6027510;23;20375;-75
2023/03/13 08:51:19;;;;;;;4.70;2.63;;;13.80;99.90;;;;;;6027544;23;20414;-75
2023/03/13 08:53:45;;;;;;;5.50;2.77;;;13.70;99.90;;;;;;6027698;23;20378;-74
2023/03/13 08:56:13;;;;;;;3.63;2.70;;;13.70;99.90;;;;;;6049120;23;20495;-74
2023/03/13 08:58:39;;;;;;;5.70;2.90;;;13.70;99.90;;;;;;6051765;23;20364;-75
2023/03/13 09:01:10;;;;;;;2.53;2.27;;;13.80;99.90;;;;;;6002682;23;20498;-73
2023/03/13 09:03:37;;;;;;;2.97;2.00;;;13.80;99.90;;;;;;6025752;23;20427;-75
2023/03/13 09:06:03;;;;;;;6.73;2.47;;;13.80;99.90;;;;;;6026105;23;20359;-74
2023/03/13 09:08:30;;;;;;;4.60;2.20;;;13.90;99.90;;;;;;6027271;23;20374;-74
2023/03/13 09:11:00;;;;;;;5.63;2.70;;;13.90;99.90;;;;;;6027549;23;20401;-74
2023/03/13 09:13:27;;;;;;;4.97;2.50;;;14.00;99.90;;;;;;6024524;23;20403;-74
2023/03/13 09:16:00;;;;;;;4.53;2.73;;;14.00;99.90;;;;;;6004789;23;20660;-76
2023/03/13 09:18:26;;;;;;;5.10;2.30;;;14.10;99.90;;;;;;6025136;23;20459;-74
2023/03/13 09:20:54;;;;;;;4.07;1.80;;;14.10;99.90;;;;;;6027070;23;20461;-75
2023/03/13 09:23:22;;;;;;;6.23;2.80;;;14.10;99.90;;;;;;6003478;23;20459;-75
2023/03/13 09:25:53;;;;;;;3.30;2.10;;;14.20;99.90;;;;;;6002376;23;20399;-77
2023/03/13 09:28:20;;;;;;;7.13;3.00;;;14.20;99.90;;;;;;6004488;23;20383;-75
2023/03/13 09:30:48;;;;;;;3.90;2.23;;;14.30;99.90;;;;;;6004858;23;20482;-75
2023/03/13 09:33:18;;;;;;;6.90;2.40;;;14.30;99.90;;;;;;6051820;23;20454;-75
2023/03/13 09:35:49;;;;;;;3.97;2.50;;;14.40;99.90;;;;;;6051016;23;20384;-74
2023/03/13 09:38:17;;;;;;;5.13;2.50;;;14.50;99.90;;;;;;6025272;23;20701;-73
2023/03/13 09:40:48;;;;;;;2.83;2.03;;;14.50;99.90;;;;;;6049127;23;20437;-75
2023/03/13 09:43:51;;;;;;;7.03;2.73;;;14.60;99.90;;;;;;6004625;23;20406;-74
2023/03/13 09:46:21;;;;;;;5.13;2.50;;;14.50;99.90;;;;;;6002255;23;20383;-75
2023/03/13 09:48:58;;;;;;;5.17;2.30;;;14.60;99.90;;;;;;6026974;23;20374;-75
2023/03/13 09:51:28;;;;;;;3.20;2.30;;;14.60;99.90;;;;;;6051353;23;20390;-76
2023/03/13 09:54:06;;;;;;;5.20;3.33;;;14.80;99.90;;;;;;6030354;23;20359;-76
2023/03/13 09:56:55;;;;;;;4.10;2.97;;;14.70;99.90;;;;;;6005735;23;20415;-76
2023/03/13 09:59:42;;;;;;;5.90;2.63;;;14.80;99.90;;;;;;6052198;23;20407;-75
2023/03/13 10:02:31;;;;;;;3.23;2.50;;;14.90;99.90;;;;;;6029794;23;20419;-76
2023/03/13 10:05:19;;;;;;;10.30;2.80;;;15.00;99.90;;;;;;6004190;23;20427;-76
2023/03/13 10:07:45;;;;;;;4.10;2.60;;;15.10;99.90;;;;;;6050430;23;20367;-74
2023/03/13 10:10:37;;;;;;;5.70;2.50;;;15.10;99.90;;;;;;6027537;23;20407;-75
2023/03/13 10:13:21;;;;;;;9.30;2.53;;;15.20;99.90;;;;;;6016094;23;20416;-75
2023/03/13 10:15:59;;;;;;;5.90;2.03;;;15.40;99.90;;;;;;6050710;23;20379;-74
2023/03/13 10:18:26;;;;;;;3.10;1.90;;;15.50;99.90;;;;;;6029517;23;20466;-76
2023/03/13 10:20:58;;;;;;;3.90;1.97;;;15.80;99.90;;;;;;6031842;23;20432;-75
2023/03/13 10:23:23;;;;;;;3.90;2.10;;;15.90;99.40;;;;;;6030532;23;20374;-75
2023/03/13 10:25:49;;;;;;;3.00;1.83;;;16.10;98.60;;;;;;6005698;23;20391;-75
2023/03/13 10:28:25;;;;;;;2.23;1.77;;;16.20;97.10;;;;;;6030767;23;20151;-75
2023/03/13 10:31:03;;;;;;;1.90;1.50;;;16.20;96.50;;;;;;6038984;23;20445;-76
2023/03/13 10:33:33;;;;;;;2.43;1.50;;;16.40;96.10;;;;;;6088811;23;20358;-76
2023/03/13 10:36:03;;;;;;;2.10;1.37;;;16.60;94.40;;;;;;6085969;23;20823;-76
2023/03/13 10:38:33;;;;;;;2.60;1.70;;;16.80;94.00;;;;;;6090163;23;20391;-75
2023/03/13 10:41:18;;;;;;;3.20;1.33;;;17.00;92.30;;;;;;6090642;23;20425;-75
2023/03/13 10:43:54;;;;;;;3.27;1.40;;;17.30;90.90;;;;;;6087173;23;20462;-75
2023/03/13 10:46:25;;;;;;;1.93;1.00;;;17.50;88.50;;;;;;6088760;23;20402;-76
2023/03/13 10:49:19;;;;;;;1.47;1.27;;;17.60;88.90;;;;;;6087069;23;20403;-77
2023/03/13 10:52:07;;;;;;;2.80;1.40;;;17.70;87.00;;;;;;6089201;23;20387;-76
2023/03/13 10:54:36;;;;;;;1.60;1.00;;;17.80;83.00;;;;;;6087938;23;20396;-75
2023/03/13 10:57:26;;;;;;;3.07;1.37;;;17.70;83.80;;;;;;6088449;23;20383;-77
2023/03/13 10:59:53;;;;;;;1.33;0.90;;;17.70;84.30;;;;;;6088425;23;20408;-76
2023/03/13 11:02:39;;;;;;;1.40;0.93;;;17.70;84.40;;;;;;6067529;23;20372;-76
2023/03/13 11:05:24;;;;;;;1.67;1.10;;;17.80;81.80;;;;;;6089902;23;20383;-76
2023/03/13 11:07:52;;;;;;;1.60;0.90;;;17.80;81.20;;;;;;6085964;23;20387;-76
2023/03/13 11:10:22;;;;;;;0.90;0.70;;;17.80;78.90;;;;;;6078173;23;20438;-75
2023/03/13 11:12:53;;;;;;;3.07;1.00;;;17.80;80.10;;;;;;6091002;23;20385;-75
2023/03/13 11:15:47;;;;;;;3.53;1.50;;;17.90;80.90;;;;;;6065701;23;20441;-77
2023/03/13 11:19:01;;;;;;;2.40;1.37;;;17.90;80.30;;;;;;6087957;23;20406;-76
2023/03/13 11:21:47;;;;;;;2.30;1.27;;;18.00;79.80;;;;;;6004677;23;20857;-75
2023/03/13 11:24:47;;;;;;;3.93;1.20;;;18.30;77.30;;;;;;6064436;23;20368;-76
2023/03/13 11:27:55;;;;;;;1.90;1.00;;;18.20;77.20;;;;;;6027149;23;20392;-76
2023/03/13 11:30:45;;;;;;;1.80;1.30;;;18.40;75.50;;;;;;6040621;23;20407;-76
2023/03/13 11:33:25;;;;;;;6.67;2.30;;;18.40;74.90;;;;;;6037883;23;20457;-77
2023/03/13 11:35:56;;;;;;;5.10;1.60;;;18.30;76.10;;;;;;6063031;23;20503;-76
2023/03/13 11:38:42;;;;;;;2.97;1.60;;;18.30;76.20;;;;;;6038004;23;20401;-76
2023/03/13 11:41:43;;;;;;;2.30;1.87;;;18.30;76.50;;;;;;6047750;23;20457;-74
2023/03/13 11:44:37;;;;;;;2.40;1.13;;;18.40;76.00;;;;;;5976062;23;20421;-75
2023/03/13 11:47:18;;;;;;;2.10;1.10;;;18.50;74.10;;;;;;5975042;24;20385;-75
2023/03/13 11:50:01;;;;;;;3.10;1.17;;;18.50;72.90;;;;;;5950490;24;20480;-76
2023/03/13 11:52:58;;;;;;;1.83;1.13;;;18.40;73.00;;;;;;5975390;24;20373;-77
2023/03/13 11:55:23;;;;;;;1.80;0.90;;;18.40;73.10;;;;;;5974499;24;20444;-77
2023/03/13 11:58:15;;;;;;;2.40;1.00;;;18.40;73.50;;;;;;5971737;24;20384;-76
2023/03/13 12:00:46;;;;;;;2.07;1.03;;;18.30;73.70;;;;;;5950812;24;20186;-76
2023/03/13 12:03:35;;;;;;;2.47;1.10;;;18.00;75.00;;;;;;5973540;24;20375;-78
2023/03/13 12:06:03;;;;;;;1.20;0.70;;;18.10;74.00;;;;;;5973778;24;20380;-76
2023/03/13 12:08:42;;;;;;;2.10;1.00;;;18.00;73.70;;;;;;5973736;24;20381;-75
2023/03/13 12:11:30;;;;;;;3.00;1.20;;;18.10;73.30;;;;;;5974484;24;20418;-76
2023/03/13 12:14:17;;;;;;;1.50;1.00;;;18.10;71.20;;;;;;5974863;24;20395;-76
2023/03/13 12:16:51;;;;;;;1.87;1.23;;;17.90;74.00;;;;;;5972466;24;20373;-76
2023/03/13 12:19:44;;;;;;;3.63;1.37;;;17.90;75.00;;;;;;5971568;24;20385;-76
2023/03/13 12:22:21;;;;;;;5.43;1.00;;;17.90;76.20;;;;;;5984951;23;20433;-75
2023/03/13 12:25:08;;;;;;;3.10;1.10;;;18.00;73.50;;;;;;6081955;23;20408;-76
2023/03/13 12:27:49;;;;;;;4.70;1.10;;;18.20;70.90;;;;;;6085357;23;20387;-76
2023/03/13 12:30:33;;;;;;;3.00;0.80;;;18.30;67.60;;;;;;6085767;23;20419;-75
2023/03/13 12:33:26;;;;;;;8.00;1.43;;;18.20;68.30;;;;;;6036789;23;20409;-77
2023/03/13 12:36:13;;;;;;;3.10;1.00;;;18.10;69.10;;;;;;6036460;23;20451;-76
2023/03/13 12:39:16;;;;;;;2.23;1.00;;;18.00;69.30;;;;;;6059553;23;20401;-76
2023/03/13 12:41:46;;;;;;;2.00;1.03;;;18.10;68.80;;;;;;6060953;23;20431;-76
2023/03/13 12:44:26;;;;;;;3.87;1.10;;;18.20;68.00;;;;;;6037939;23;20383;-76
2023/03/13 12:47:28;;;;;;;2.30;1.00;;;18.30;67.40;;;;;;6064172;23;20377;-77
2023/03/13 12:50:22;;;;;;;3.10;1.20;;;18.20;67.30;;;;;;6040295;23;20421;-76
2023/03/13 12:56:22;;;;;;;1.50;1.07;;;18.40;68.20;;;;;;6089706;23;20460;-74
2023/03/13 12:58:51;;;;;;;3.33;1.33;;;18.60;66.20;;;;;;6068360;23;20380;-77
2023/03/13 13:01:32;;;;;;;1.80;1.20;;;18.60;66.00;;;;;;6070594;23;20425;-77
2023/03/13 13:04:25;;;;;;;2.33;1.23;;;18.50;66.20;;;;;;6066320;23;20414;-77
2023/03/13 13:07:17;;;;;;;1.40;1.07;;;18.50;65.40;;;;;;6002308;23;20403;-76
2023/03/13 13:10:10;;;;;;;3.30;1.10;;;18.60;65.50;;;;;;6001429;23;20435;-74
2023/03/13 13:12:38;;;;;;;1.80;1.17;;;18.60;65.30;;;;;;5954091;24;20384;-75
2023/03/13 13:15:25;;;;;;;2.93;1.00;;;18.40;66.10;;;;;;6001202;24;20420;-75
2023/03/13 13:18:24;;;;;;;3.00;1.50;;;18.30;67.30;;;;;;6003493;24;20406;-76
2023/03/13 13:21:02;;;;;;;4.43;1.37;;;18.20;68.50;;;;;;6002425;23;20427;-77